sensor_id;sensor_type;location;lat;lon;timestamp;temperature;humidity
51922;DHT22;37948;53.260;6.394;2022-08-03T00:01:39;20.10;99.90
51922;DHT22;37948;53.260;6.394;2022-08-03T00:04:06;20.00;99.90
51922;DHT22;37948;53.260;6.394;2022-08-03T00:06:32;20.00;99.90
51922;DHT22;37948;53.260;6.394;2022-08-03T00:08:58;20.00;99.90
51922;DHT22;37948;53.260;6.394;2022-08-03T00:11:24;20.00;99.90
51922;DHT22;37948;53.260;6.394;2022-08-03T00:13:49;20.00;99.90
51922;DHT22;37948;53.260;6.394;2022-08-03T00:16:15;20.00;99.90
51922;DHT22;37948;53.260;6.394;2022-08-03T00:18:41;20.00;99.90
51922;DHT22;37948;53.260;6.394;2022-08-03T00:21:07;20.00;99.90
51922;DHT22;37948;53.260;6.394;2022-08-03T00:23:33;20.00;99.90
51922;DHT22;37948;53.260;6.394;2022-08-03T00:25:59;20.00;99.90
51922;DHT22;37948;53.260;6.394;2022-08-03T00:28:25;19.90;99.90
51922;DHT22;37948;53.260;6.394;2022-08-03T00:30:50;19.90;99.90
51922;DHT22;37948;53.260;6.394;2022-08-03T00:33:16;19.90;99.90
51922;DHT22;37948;53.260;6.394;2022-08-03T00:35:42;19.90;99.90
51922;DHT22;37948;53.260;6.394;2022-08-03T00:38:08;19.90;99.90
51922;DHT22;37948;53.260;6.394;2022-08-03T00:40:34;19.90;99.90
51922;DHT22;37948;53.260;6.394;2022-08-03T00:43:02;19.90;99.90
51922;DHT22;37948;53.260;6.394;2022-08-03T00:45:31;19.90;99.90
51922;DHT22;37948;53.260;6.394;2022-08-03T00:47:58;19.90;99.90
51922;DHT22;37948;53.260;6.394;2022-08-03T00:50:25;19.90;99.90
51922;DHT22;37948;53.260;6.394;2022-08-03T00:52:52;19.80;99.90
51922;DHT22;37948;53.260;6.394;2022-08-03T00:55:18;19.80;99.90
51922;DHT22;37948;53.260;6.394;2022-08-03T00:57:45;19.80;99.90
51922;DHT22;37948;53.260;6.394;2022-08-03T01:00:12;19.80;99.90
51922;DHT22;37948;53.260;6.394;2022-08-03T01:02:39;19.80;99.90
51922;DHT22;37948;53.260;6.394;2022-08-03T01:05:05;19.80;99.90
51922;DHT22;37948;53.260;6.394;2022-08-03T01:13:42;19.80;99.90
51922;DHT22;37948;53.260;6.394;2022-08-03T01:16:16;19.80;99.90
51922;DHT22;37948;53.260;6.394;2022-08-03T01:21:58;19.70;99.90
51922;DHT22;37948;53.260;6.394;2022-08-03T01:24:57;19.70;99.90
51922;DHT22;37948;53.260;6.394;2022-08-03T01:30:33;19.70;99.90
51922;DHT22;37948;53.260;6.394;2022-08-03T01:33:05;19.60;99.90
51922;DHT22;37948;53.260;6.394;2022-08-03T01:35:59;19.60;99.90
51922;DHT22;37948;53.260;6.394;2022-08-03T01:38:28;19.60;99.90
51922;DHT22;37948;53.260;6.394;2022-08-03T01:40:56;19.60;99.90
51922;DHT22;37948;53.260;6.394;2022-08-03T01:43:28;19.60;99.90
51922;DHT22;37948;53.260;6.394;2022-08-03T01:45:56;19.60;99.90
51922;DHT22;37948;53.260;6.394;2022-08-03T01:48:23;19.60;99.90
51922;DHT22;37948;53.260;6.394;2022-08-03T01:50:50;19.60;99.90
51922;DHT22;37948;53.260;6.394;2022-08-03T01:53:18;19.60;99.90
51922;DHT22;37948;53.260;6.394;2022-08-03T01:55:46;19.60;99.90
51922;DHT22;37948;53.260;6.394;2022-08-03T01:58:14;19.60;99.90
51922;DHT22;37948;53.260;6.394;2022-08-03T02:00:41;19.60;99.90
51922;DHT22;37948;53.260;6.394;2022-08-03T02:03:08;19.60;99.90
51922;DHT22;37948;53.260;6.394;2022-08-03T02:05:38;19.50;99.90
51922;DHT22;37948;53.260;6.394;2022-08-03T02:08:07;19.50;99.90
51922;DHT22;37948;53.260;6.394;2022-08-03T02:10:35;19.50;99.90
51922;DHT22;37948;53.260;6.394;2022-08-03T02:13:04;19.50;99.90
51922;DHT22;37948;53.260;6.394;2022-08-03T02:15:31;19.50;99.90
51922;DHT22;37948;53.260;6.394;2022-08-03T02:17:59;19.50;99.90
51922;DHT22;37948;53.260;6.394;2022-08-03T02:20:26;19.50;99.90
51922;DHT22;37948;53.260;6.394;2022-08-03T02:22:52;19.40;99.90
51922;DHT22;37948;53.260;6.394;2022-08-03T02:25:18;19.40;99.90
51922;DHT22;37948;53.260;6.394;2022-08-03T02:27:50;19.40;99.90
51922;DHT22;37948;53.260;6.394;2022-08-03T02:30:17;19.40;99.90
51922;DHT22;37948;53.260;6.394;2022-08-03T02:32:50;19.40;99.90
51922;DHT22;37948;53.260;6.394;2022-08-03T02:35:17;19.40;99.90
51922;DHT22;37948;53.260;6.394;2022-08-03T02:37:52;19.40;99.90
51922;DHT22;37948;53.260;6.394;2022-08-03T02:40:22;19.40;99.90
51922;DHT22;37948;53.260;6.394;2022-08-03T02:42:50;19.30;99.90
51922;DHT22;37948;53.260;6.394;2022-08-03T02:45:19;19.30;99.90
51922;DHT22;37948;53.260;6.394;2022-08-03T02:47:46;19.30;99.90
51922;DHT22;37948;53.260;6.394;2022-08-03T02:50:13;19.30;99.90
51922;DHT22;37948;53.260;6.394;2022-08-03T02:52:41;19.30;99.90
51922;DHT22;37948;53.260;6.394;2022-08-03T02:55:08;19.30;99.90
51922;DHT22;37948;53.260;6.394;2022-08-03T02:57:35;19.30;99.90
51922;DHT22;37948;53.260;6.394;2022-08-03T03:00:02;19.30;99.90
51922;DHT22;37948;53.260;6.394;2022-08-03T03:02:29;19.20;99.90
51922;DHT22;37948;53.260;6.394;2022-08-03T03:04:55;19.30;99.90
51922;DHT22;37948;53.260;6.394;2022-08-03T03:07:22;19.30;99.90
51922;DHT22;37948;53.260;6.394;2022-08-03T03:09:48;19.30;99.90
51922;DHT22;37948;53.260;6.394;2022-08-03T03:12:14;19.30;99.90
51922;DHT22;37948;53.260;6.394;2022-08-03T03:14:41;19.20;99.90
51922;DHT22;37948;53.260;6.394;2022-08-03T03:17:08;19.20;99.90
51922;DHT22;37948;53.260;6.394;2022-08-03T03:19:34;19.20;99.90
51922;DHT22;37948;53.260;6.394;2022-08-03T03:22:01;19.20;99.90
51922;DHT22;37948;53.260;6.394;2022-08-03T03:24:29;19.20;99.90
51922;DHT22;37948;53.260;6.394;2022-08-03T03:26:55;19.20;99.90
51922;DHT22;37948;53.260;6.394;2022-08-03T03:29:21;19.20;99.90
51922;DHT22;37948;53.260;6.394;2022-08-03T03:31:47;19.20;99.90
51922;DHT22;37948;53.260;6.394;2022-08-03T03:34:14;19.20;99.90
51922;DHT22;37948;53.260;6.394;2022-08-03T03:36:39;19.20;99.90
51922;DHT22;37948;53.260;6.394;2022-08-03T03:39:05;19.20;99.90
51922;DHT22;37948;53.260;6.394;2022-08-03T03:41:31;19.10;99.90
51922;DHT22;37948;53.260;6.394;2022-08-03T03:43:57;19.10;99.90
51922;DHT22;37948;53.260;6.394;2022-08-03T03:46:26;19.10;99.90
51922;DHT22;37948;53.260;6.394;2022-08-03T03:48:52;19.10;99.90
51922;DHT22;37948;53.260;6.394;2022-08-03T03:51:18;19.10;99.90
51922;DHT22;37948;53.260;6.394;2022-08-03T03:53:58;19.10;99.90
51922;DHT22;37948;53.260;6.394;2022-08-03T03:56:24;19.10;99.90
51922;DHT22;37948;53.260;6.394;2022-08-03T03:58:50;19.10;99.90
51922;DHT22;37948;53.260;6.394;2022-08-03T04:01:17;19.10;99.90
51922;DHT22;37948;53.260;6.394;2022-08-03T04:03:42;19.10;99.90
51922;DHT22;37948;53.260;6.394;2022-08-03T04:06:08;19.00;99.90
51922;DHT22;37948;53.260;6.394;2022-08-03T04:08:52;19.10;99.90
51922;DHT22;37948;53.260;6.394;2022-08-03T04:11:44;19.10;99.90
51922;DHT22;37948;53.260;6.394;2022-08-03T04:14:16;19.00;99.90
51922;DHT22;37948;53.260;6.394;2022-08-03T04:16:54;19.10;99.90
51922;DHT22;37948;53.260;6.394;2022-08-03T04:19:41;19.00;99.90
51922;DHT22;37948;53.260;6.394;2022-08-03T04:22:13;19.00;99.90
51922;DHT22;37948;53.260;6.394;2022-08-03T04:24:45;19.00;99.90
51922;DHT22;37948;53.260;6.394;2022-08-03T04:27:16;19.00;99.90
51922;DHT22;37948;53.260;6.394;2022-08-03T04:29:48;19.00;99.90
51922;DHT22;37948;53.260;6.394;2022-08-03T04:32:14;19.00;99.90
51922;DHT22;37948;53.260;6.394;2022-08-03T04:34:40;19.00;99.90
51922;DHT22;37948;53.260;6.394;2022-08-03T04:37:11;19.00;99.90
51922;DHT22;37948;53.260;6.394;2022-08-03T04:39:41;19.00;99.90
51922;DHT22;37948;53.260;6.394;2022-08-03T04:42:11;19.10;99.90
51922;DHT22;37948;53.260;6.394;2022-08-03T04:44:40;19.00;99.90
51922;DHT22;37948;53.260;6.394;2022-08-03T04:47:07;19.00;99.90
51922;DHT22;37948;53.260;6.394;2022-08-03T04:49:35;19.00;99.90
51922;DHT22;37948;53.260;6.394;2022-08-03T04:52:01;19.00;99.90
51922;DHT22;37948;53.260;6.394;2022-08-03T04:54:27;19.00;99.90
51922;DHT22;37948;53.260;6.394;2022-08-03T04:56:52;19.10;99.90
51922;DHT22;37948;53.260;6.394;2022-08-03T04:59:18;19.10;99.90
51922;DHT22;37948;53.260;6.394;2022-08-03T05:01:43;19.10;99.90
51922;DHT22;37948;53.260;6.394;2022-08-03T05:04:12;19.10;99.90
51922;DHT22;37948;53.260;6.394;2022-08-03T05:06:38;19.10;99.90
51922;DHT22;37948;53.260;6.394;2022-08-03T05:09:03;19.10;99.90
51922;DHT22;37948;53.260;6.394;2022-08-03T05:11:29;19.20;99.90
51922;DHT22;37948;53.260;6.394;2022-08-03T05:13:54;19.20;99.90
51922;DHT22;37948;53.260;6.394;2022-08-03T05:16:20;19.10;99.90
51922;DHT22;37948;53.260;6.394;2022-08-03T05:18:46;19.10;99.90
51922;DHT22;37948;53.260;6.394;2022-08-03T05:21:12;19.10;99.90
51922;DHT22;37948;53.260;6.394;2022-08-03T05:23:39;19.20;99.90
51922;DHT22;37948;53.260;6.394;2022-08-03T05:26:05;19.20;99.90
51922;DHT22;37948;53.260;6.394;2022-08-03T05:28:31;19.20;99.90
51922;DHT22;37948;53.260;6.394;2022-08-03T05:30:56;19.30;99.90
51922;DHT22;37948;53.260;6.394;2022-08-03T05:33:22;19.30;99.90
51922;DHT22;37948;53.260;6.394;2022-08-03T05:35:48;19.30;99.90
51922;DHT22;37948;53.260;6.394;2022-08-03T05:38:13;19.30;99.90
51922;DHT22;37948;53.260;6.394;2022-08-03T05:40:39;19.30;99.90
51922;DHT22;37948;53.260;6.394;2022-08-03T05:43:04;19.30;99.90
51922;DHT22;37948;53.260;6.394;2022-08-03T05:45:30;19.40;99.90
51922;DHT22;37948;53.260;6.394;2022-08-03T05:47:55;19.30;99.90
51922;DHT22;37948;53.260;6.394;2022-08-03T05:50:21;19.40;99.90
51922;DHT22;37948;53.260;6.394;2022-08-03T05:52:47;19.40;99.90
51922;DHT22;37948;53.260;6.394;2022-08-03T05:55:13;19.40;99.90
51922;DHT22;37948;53.260;6.394;2022-08-03T05:57:39;19.50;99.90
51922;DHT22;37948;53.260;6.394;2022-08-03T06:00:09;19.50;99.90
51922;DHT22;37948;53.260;6.394;2022-08-03T06:02:35;19.50;99.90
51922;DHT22;37948;53.260;6.394;2022-08-03T06:05:01;19.50;99.90
51922;DHT22;37948;53.260;6.394;2022-08-03T06:07:27;19.60;99.90
51922;DHT22;37948;53.260;6.394;2022-08-03T06:09:52;19.60;99.90
51922;DHT22;37948;53.260;6.394;2022-08-03T06:12:18;19.60;99.90
51922;DHT22;37948;53.260;6.394;2022-08-03T06:14:44;19.70;99.90
51922;DHT22;37948;53.260;6.394;2022-08-03T06:17:10;19.70;99.90
51922;DHT22;37948;53.260;6.394;2022-08-03T06:19:36;19.70;99.90
51922;DHT22;37948;53.260;6.394;2022-08-03T06:22:01;19.80;99.90
51922;DHT22;37948;53.260;6.394;2022-08-03T06:24:27;19.80;99.90
51922;DHT22;37948;53.260;6.394;2022-08-03T06:26:52;19.90;99.90
51922;DHT22;37948;53.260;6.394;2022-08-03T06:29:18;19.90;99.90
51922;DHT22;37948;53.260;6.394;2022-08-03T06:31:43;19.90;99.90
51922;DHT22;37948;53.260;6.394;2022-08-03T06:34:09;20.00;99.90
51922;DHT22;37948;53.260;6.394;2022-08-03T06:36:35;20.00;99.90
51922;DHT22;37948;53.260;6.394;2022-08-03T06:39:01;20.00;99.90
51922;DHT22;37948;53.260;6.394;2022-08-03T06:41:27;20.10;99.90
51922;DHT22;37948;53.260;6.394;2022-08-03T06:43:53;20.10;99.90
51922;DHT22;37948;53.260;6.394;2022-08-03T06:46:19;20.10;99.90
51922;DHT22;37948;53.260;6.394;2022-08-03T06:48:45;20.20;99.90
51922;DHT22;37948;53.260;6.394;2022-08-03T06:51:10;20.30;99.90
51922;DHT22;37948;53.260;6.394;2022-08-03T06:53:37;20.30;99.90
51922;DHT22;37948;53.260;6.394;2022-08-03T06:56:06;20.40;99.90
51922;DHT22;37948;53.260;6.394;2022-08-03T06:58:32;20.40;99.90
51922;DHT22;37948;53.260;6.394;2022-08-03T07:00:58;20.50;99.90
51922;DHT22;37948;53.260;6.394;2022-08-03T07:03:23;20.50;99.90
51922;DHT22;37948;53.260;6.394;2022-08-03T07:05:49;20.60;99.90
51922;DHT22;37948;53.260;6.394;2022-08-03T07:08:15;20.60;99.90
51922;DHT22;37948;53.260;6.394;2022-08-03T07:10:41;20.70;99.90
51922;DHT22;37948;53.260;6.394;2022-08-03T07:13:07;20.70;99.90
51922;DHT22;37948;53.260;6.394;2022-08-03T07:15:34;20.80;99.90
51922;DHT22;37948;53.260;6.394;2022-08-03T07:17:59;20.80;99.90
51922;DHT22;37948;53.260;6.394;2022-08-03T07:20:25;20.90;99.90
51922;DHT22;37948;53.260;6.394;2022-08-03T07:22:50;20.90;99.90
51922;DHT22;37948;53.260;6.394;2022-08-03T07:25:16;21.00;99.90
51922;DHT22;37948;53.260;6.394;2022-08-03T07:27:46;21.00;99.90
51922;DHT22;37948;53.260;6.394;2022-08-03T07:30:12;21.10;99.90
51922;DHT22;37948;53.260;6.394;2022-08-03T07:32:38;21.10;99.90
51922;DHT22;37948;53.260;6.394;2022-08-03T07:35:05;21.20;99.90
51922;DHT22;37948;53.260;6.394;2022-08-03T07:37:31;21.20;99.90
51922;DHT22;37948;53.260;6.394;2022-08-03T07:39:58;21.30;99.90
51922;DHT22;37948;53.260;6.394;2022-08-03T07:42:27;21.50;99.90
51922;DHT22;37948;53.260;6.394;2022-08-03T07:44:53;21.60;99.90
51922;DHT22;37948;53.260;6.394;2022-08-03T07:47:22;21.60;99.90
51922;DHT22;37948;53.260;6.394;2022-08-03T07:49:47;21.70;99.90
51922;DHT22;37948;53.260;6.394;2022-08-03T07:52:13;21.70;99.90
51922;DHT22;37948;53.260;6.394;2022-08-03T07:54:57;21.80;99.90
51922;DHT22;37948;53.260;6.394;2022-08-03T07:57:23;21.80;99.90
51922;DHT22;37948;53.260;6.394;2022-08-03T07:59:48;21.80;99.90
51922;DHT22;37948;53.260;6.394;2022-08-03T08:02:14;21.80;99.90
51922;DHT22;37948;53.260;6.394;2022-08-03T08:04:40;21.80;99.90
51922;DHT22;37948;53.260;6.394;2022-08-03T08:07:06;21.90;99.90
51922;DHT22;37948;53.260;6.394;2022-08-03T08:09:31;22.10;99.90
51922;DHT22;37948;53.260;6.394;2022-08-03T08:11:57;22.20;99.90
51922;DHT22;37948;53.260;6.394;2022-08-03T08:14:22;22.20;99.90
51922;DHT22;37948;53.260;6.394;2022-08-03T08:16:48;22.20;99.90
51922;DHT22;37948;53.260;6.394;2022-08-03T08:19:14;22.30;99.90
51922;DHT22;37948;53.260;6.394;2022-08-03T08:21:41;22.40;99.90
51922;DHT22;37948;53.260;6.394;2022-08-03T08:24:07;22.40;99.90
51922;DHT22;37948;53.260;6.394;2022-08-03T08:26:34;22.50;99.90
51922;DHT22;37948;53.260;6.394;2022-08-03T08:28:59;22.60;99.90
51922;DHT22;37948;53.260;6.394;2022-08-03T08:31:25;22.70;99.90
51922;DHT22;37948;53.260;6.394;2022-08-03T08:33:50;22.70;99.90
51922;DHT22;37948;53.260;6.394;2022-08-03T08:36:16;22.70;99.90
51922;DHT22;37948;53.260;6.394;2022-08-03T08:38:42;22.90;99.90
51922;DHT22;37948;53.260;6.394;2022-08-03T08:41:10;22.90;99.90
51922;DHT22;37948;53.260;6.394;2022-08-03T08:43:36;23.10;99.90
51922;DHT22;37948;53.260;6.394;2022-08-03T08:46:02;23.20;99.90
51922;DHT22;37948;53.260;6.394;2022-08-03T08:48:29;23.20;99.90
51922;DHT22;37948;53.260;6.394;2022-08-03T08:50:55;23.20;99.90
51922;DHT22;37948;53.260;6.394;2022-08-03T08:53:25;23.30;99.90
51922;DHT22;37948;53.260;6.394;2022-08-03T08:55:51;23.20;99.90
51922;DHT22;37948;53.260;6.394;2022-08-03T08:58:20;23.20;99.90
51922;DHT22;37948;53.260;6.394;2022-08-03T09:00:47;23.20;99.90
51922;DHT22;37948;53.260;6.394;2022-08-03T09:03:13;23.20;99.90
51922;DHT22;37948;53.260;6.394;2022-08-03T09:05:41;23.20;99.90
51922;DHT22;37948;53.260;6.394;2022-08-03T09:08:07;23.20;99.90
51922;DHT22;37948;53.260;6.394;2022-08-03T09:10:33;23.20;99.90
51922;DHT22;37948;53.260;6.394;2022-08-03T09:12:59;23.30;99.90
51922;DHT22;37948;53.260;6.394;2022-08-03T09:15:30;23.40;99.90
51922;DHT22;37948;53.260;6.394;2022-08-03T09:18:01;23.50;99.90
51922;DHT22;37948;53.260;6.394;2022-08-03T09:20:29;23.60;99.90
51922;DHT22;37948;53.260;6.394;2022-08-03T09:23:08;23.60;99.90
51922;DHT22;37948;53.260;6.394;2022-08-03T09:25:41;23.60;99.90
51922;DHT22;37948;53.260;6.394;2022-08-03T09:28:10;23.60;99.90
51922;DHT22;37948;53.260;6.394;2022-08-03T09:30:38;23.70;99.90
51922;DHT22;37948;53.260;6.394;2022-08-03T09:33:05;23.80;99.90
51922;DHT22;37948;53.260;6.394;2022-08-03T09:35:32;23.90;99.90
51922;DHT22;37948;53.260;6.394;2022-08-03T09:40:35;24.20;99.90
51922;DHT22;37948;53.260;6.394;2022-08-03T09:43:01;24.30;99.90
51922;DHT22;37948;53.260;6.394;2022-08-03T09:45:27;24.50;99.90
51922;DHT22;37948;53.260;6.394;2022-08-03T09:47:52;24.50;99.90
51922;DHT22;37948;53.260;6.394;2022-08-03T09:50:18;24.60;99.90
51922;DHT22;37948;53.260;6.394;2022-08-03T09:52:43;24.50;99.90
51922;DHT22;37948;53.260;6.394;2022-08-03T09:55:12;24.60;99.90
51922;DHT22;37948;53.260;6.394;2022-08-03T09:57:39;24.50;99.90
51922;DHT22;37948;53.260;6.394;2022-08-03T10:00:12;24.50;99.90
51922;DHT22;37948;53.260;6.394;2022-08-03T10:02:39;24.60;99.90
51922;DHT22;37948;53.260;6.394;2022-08-03T10:05:07;24.70;99.90
51922;DHT22;37948;53.260;6.394;2022-08-03T10:07:45;24.70;99.90
51922;DHT22;37948;53.260;6.394;2022-08-03T10:10:13;24.70;99.90
51922;DHT22;37948;53.260;6.394;2022-08-03T10:12:40;24.80;99.90
51922;DHT22;37948;53.260;6.394;2022-08-03T10:15:07;24.90;99.90
51922;DHT22;37948;53.260;6.394;2022-08-03T10:17:33;24.90;99.90
51922;DHT22;37948;53.260;6.394;2022-08-03T10:19:59;24.90;99.90
51922;DHT22;37948;53.260;6.394;2022-08-03T10:22:32;24.90;99.90
51922;DHT22;37948;53.260;6.394;2022-08-03T10:25:17;24.90;99.90
51922;DHT22;37948;53.260;6.394;2022-08-03T10:27:46;25.00;99.90
51922;DHT22;37948;53.260;6.394;2022-08-03T10:30:13;25.10;99.90
51922;DHT22;37948;53.260;6.394;2022-08-03T10:32:47;25.20;99.90
51922;DHT22;37948;53.260;6.394;2022-08-03T10:35:19;25.30;99.90
51922;DHT22;37948;53.260;6.394;2022-08-03T10:37:56;25.30;99.90
51922;DHT22;37948;53.260;6.394;2022-08-03T10:40:23;25.30;99.90
51922;DHT22;37948;53.260;6.394;2022-08-03T10:42:50;25.30;99.90
51922;DHT22;37948;53.260;6.394;2022-08-03T10:45:23;25.20;99.90
51922;DHT22;37948;53.260;6.394;2022-08-03T10:47:50;25.10;99.90
51922;DHT22;37948;53.260;6.394;2022-08-03T10:50:17;25.10;99.90
51922;DHT22;37948;53.260;6.394;2022-08-03T10:52:56;25.10;99.90
51922;DHT22;37948;53.260;6.394;2022-08-03T10:55:34;25.10;99.90
51922;DHT22;37948;53.260;6.394;2022-08-03T11:01:07;25.30;99.90
51922;DHT22;37948;53.260;6.394;2022-08-03T11:03:34;25.50;99.90
51922;DHT22;37948;53.260;6.394;2022-08-03T11:06:24;25.70;99.90
51922;DHT22;37948;53.260;6.394;2022-08-03T11:11:35;25.80;99.90
51922;DHT22;37948;53.260;6.394;2022-08-03T11:14:09;25.70;99.90
51922;DHT22;37948;53.260;6.394;2022-08-03T11:16:48;25.80;99.90
51922;DHT22;37948;53.260;6.394;2022-08-03T11:19:16;25.80;99.90
51922;DHT22;37948;53.260;6.394;2022-08-03T11:27:30;25.70;99.90
51922;DHT22;37948;53.260;6.394;2022-08-03T11:29:57;25.80;99.90
51922;DHT22;37948;53.260;6.394;2022-08-03T11:35:20;25.90;99.90
51922;DHT22;37948;53.260;6.394;2022-08-03T11:40:49;26.00;99.90
51922;DHT22;37948;53.260;6.394;2022-08-03T11:45:58;26.10;99.90
51922;DHT22;37948;53.260;6.394;2022-08-03T11:48:27;26.20;99.90
51922;DHT22;37948;53.260;6.394;2022-08-03T11:50:53;26.20;99.90
51922;DHT22;37948;53.260;6.394;2022-08-03T11:53:18;26.30;99.90
51922;DHT22;37948;53.260;6.394;2022-08-03T11:55:45;26.20;99.90
51922;DHT22;37948;53.260;6.394;2022-08-03T11:58:21;26.20;99.90
51922;DHT22;37948;53.260;6.394;2022-08-03T12:00:48;26.30;99.90
51922;DHT22;37948;53.260;6.394;2022-08-03T12:03:16;26.30;99.90
51922;DHT22;37948;53.260;6.394;2022-08-03T12:05:44;26.30;99.90
51922;DHT22;37948;53.260;6.394;2022-08-03T12:08:12;26.40;99.90
51922;DHT22;37948;53.260;6.394;2022-08-03T12:10:39;26.50;99.90
51922;DHT22;37948;53.260;6.394;2022-08-03T12:13:06;26.50;99.90
51922;DHT22;37948;53.260;6.394;2022-08-03T12:15:35;26.50;99.90
51922;DHT22;37948;53.260;6.394;2022-08-03T12:18:02;26.50;99.90
51922;DHT22;37948;53.260;6.394;2022-08-03T12:20:30;26.60;99.90
51922;DHT22;37948;53.260;6.394;2022-08-03T12:23:02;26.50;99.90
51922;DHT22;37948;53.260;6.394;2022-08-03T12:25:29;26.60;99.90
51922;DHT22;37948;53.260;6.394;2022-08-03T12:30:38;26.60;99.90
51922;DHT22;37948;53.260;6.394;2022-08-03T12:33:21;26.60;99.90
51922;DHT22;37948;53.260;6.394;2022-08-03T12:35:49;26.70;99.90
51922;DHT22;37948;53.260;6.394;2022-08-03T12:38:20;26.70;99.90
51922;DHT22;37948;53.260;6.394;2022-08-03T12:40:55;26.80;99.90
51922;DHT22;37948;53.260;6.394;2022-08-03T12:43:21;26.90;99.90
51922;DHT22;37948;53.260;6.394;2022-08-03T12:45:46;27.00;99.90
51922;DHT22;37948;53.260;6.394;2022-08-03T12:48:12;27.00;99.90
51922;DHT22;37948;53.260;6.394;2022-08-03T12:50:38;26.90;99.90
51922;DHT22;37948;53.260;6.394;2022-08-03T12:53:08;26.90;99.90
51922;DHT22;37948;53.260;6.394;2022-08-03T12:55:34;26.90;99.90
51922;DHT22;37948;53.260;6.394;2022-08-03T12:58:01;26.90;99.90
51922;DHT22;37948;53.260;6.394;2022-08-03T13:00:28;26.90;99.90
51922;DHT22;37948;53.260;6.394;2022-08-03T13:03:05;26.80;99.90
51922;DHT22;37948;53.260;6.394;2022-08-03T13:05:44;26.90;99.90
51922;DHT22;37948;53.260;6.394;2022-08-03T13:08:17;26.80;99.90
51922;DHT22;37948;53.260;6.394;2022-08-03T13:10:43;26.80;99.90
51922;DHT22;37948;53.260;6.394;2022-08-03T13:13:10;26.80;99.90
51922;DHT22;37948;53.260;6.394;2022-08-03T13:15:36;26.70;99.90
51922;DHT22;37948;53.260;6.394;2022-08-03T13:18:02;26.70;99.90
51922;DHT22;37948;53.260;6.394;2022-08-03T13:20:27;26.70;99.90
51922;DHT22;37948;53.260;6.394;2022-08-03T13:22:53;26.70;99.90
51922;DHT22;37948;53.260;6.394;2022-08-03T13:25:18;26.80;99.90
51922;DHT22;37948;53.260;6.394;2022-08-03T13:27:45;26.80;99.90
51922;DHT22;37948;53.260;6.394;2022-08-03T13:30:11;26.90;99.90
51922;DHT22;37948;53.260;6.394;2022-08-03T13:32:37;26.80;99.90
51922;DHT22;37948;53.260;6.394;2022-08-03T13:35:03;27.00;99.90
51922;DHT22;37948;53.260;6.394;2022-08-03T13:37:30;26.90;99.90
51922;DHT22;37948;53.260;6.394;2022-08-03T13:40:00;26.90;99.90
51922;DHT22;37948;53.260;6.394;2022-08-03T13:42:26;27.00;99.90
51922;DHT22;37948;53.260;6.394;2022-08-03T13:44:52;26.90;99.90
51922;DHT22;37948;53.260;6.394;2022-08-03T13:47:18;27.00;99.90
51922;DHT22;37948;53.260;6.394;2022-08-03T13:49:44;27.00;99.90
51922;DHT22;37948;53.260;6.394;2022-08-03T13:52:15;27.00;99.90
51922;DHT22;37948;53.260;6.394;2022-08-03T13:54:41;26.90;99.90
51922;DHT22;37948;53.260;6.394;2022-08-03T13:57:06;27.00;99.90
51922;DHT22;37948;53.260;6.394;2022-08-03T13:59:32;26.90;99.90
51922;DHT22;37948;53.260;6.394;2022-08-03T14:01:58;26.80;99.90
51922;DHT22;37948;53.260;6.394;2022-08-03T14:04:23;26.70;99.90
51922;DHT22;37948;53.260;6.394;2022-08-03T14:06:49;26.60;99.90
51922;DHT22;37948;53.260;6.394;2022-08-03T14:09:15;26.60;99.90
51922;DHT22;37948;53.260;6.394;2022-08-03T14:11:42;26.60;99.90
51922;DHT22;37948;53.260;6.394;2022-08-03T14:14:08;26.70;99.90
51922;DHT22;37948;53.260;6.394;2022-08-03T14:16:34;26.80;99.90
51922;DHT22;37948;53.260;6.394;2022-08-03T14:19:00;26.80;99.90
51922;DHT22;37948;53.260;6.394;2022-08-03T14:21:25;26.80;99.90
51922;DHT22;37948;53.260;6.394;2022-08-03T14:23:51;26.80;99.90
51922;DHT22;37948;53.260;6.394;2022-08-03T14:26:17;26.70;99.90
51922;DHT22;37948;53.260;6.394;2022-08-03T14:28:45;26.70;99.90
51922;DHT22;37948;53.260;6.394;2022-08-03T14:31:11;26.60;99.90
51922;DHT22;37948;53.260;6.394;2022-08-03T14:33:36;26.60;99.90
51922;DHT22;37948;53.260;6.394;2022-08-03T14:36:02;26.60;99.90
51922;DHT22;37948;53.260;6.394;2022-08-03T14:38:28;26.40;99.90
51922;DHT22;37948;53.260;6.394;2022-08-03T14:40:54;26.50;99.90
51922;DHT22;37948;53.260;6.394;2022-08-03T14:43:20;26.50;99.90
51922;DHT22;37948;53.260;6.394;2022-08-03T14:45:46;26.50;99.90
51922;DHT22;37948;53.260;6.394;2022-08-03T14:48:12;26.50;99.90
51922;DHT22;37948;53.260;6.394;2022-08-03T14:50:38;26.50;99.90
51922;DHT22;37948;53.260;6.394;2022-08-03T14:53:04;26.50;99.90
51922;DHT22;37948;53.260;6.394;2022-08-03T14:55:29;26.40;99.90
51922;DHT22;37948;53.260;6.394;2022-08-03T14:57:55;26.50;99.90
51922;DHT22;37948;53.260;6.394;2022-08-03T15:00:20;26.50;99.90
51922;DHT22;37948;53.260;6.394;2022-08-03T15:02:46;26.60;99.90
51922;DHT22;37948;53.260;6.394;2022-08-03T15:05:12;26.60;99.90
51922;DHT22;37948;53.260;6.394;2022-08-03T15:07:39;26.70;99.90
51922;DHT22;37948;53.260;6.394;2022-08-03T15:10:05;26.80;99.90
51922;DHT22;37948;53.260;6.394;2022-08-03T15:12:31;26.80;99.90
51922;DHT22;37948;53.260;6.394;2022-08-03T15:14:56;26.80;99.90
51922;DHT22;37948;53.260;6.394;2022-08-03T15:17:22;26.90;99.90
51922;DHT22;37948;53.260;6.394;2022-08-03T15:19:48;26.90;99.90
51922;DHT22;37948;53.260;6.394;2022-08-03T15:22:13;26.90;99.90
51922;DHT22;37948;53.260;6.394;2022-08-03T15:24:41;27.00;99.90
51922;DHT22;37948;53.260;6.394;2022-08-03T15:27:07;27.10;99.90
51922;DHT22;37948;53.260;6.394;2022-08-03T15:29:32;27.00;99.90
51922;DHT22;37948;53.260;6.394;2022-08-03T15:31:58;27.00;99.90
51922;DHT22;37948;53.260;6.394;2022-08-03T15:34:23;27.00;99.90
51922;DHT22;37948;53.260;6.394;2022-08-03T15:36:49;27.00;99.90
51922;DHT22;37948;53.260;6.394;2022-08-03T15:39:14;27.00;99.90
51922;DHT22;37948;53.260;6.394;2022-08-03T15:41:40;27.00;99.90
51922;DHT22;37948;53.260;6.394;2022-08-03T15:44:06;26.90;99.90
51922;DHT22;37948;53.260;6.394;2022-08-03T15:46:31;26.80;99.90
51922;DHT22;37948;53.260;6.394;2022-08-03T15:48:57;26.80;99.90
51922;DHT22;37948;53.260;6.394;2022-08-03T15:51:25;26.70;99.90
51922;DHT22;37948;53.260;6.394;2022-08-03T15:53:50;26.80;99.90
51922;DHT22;37948;53.260;6.394;2022-08-03T15:56:16;26.80;99.90
51922;DHT22;37948;53.260;6.394;2022-08-03T15:58:41;26.70;99.90
51922;DHT22;37948;53.260;6.394;2022-08-03T16:01:07;26.70;99.90
51922;DHT22;37948;53.260;6.394;2022-08-03T16:03:33;26.70;99.90
51922;DHT22;37948;53.260;6.394;2022-08-03T16:06:01;26.70;99.90
51922;DHT22;37948;53.260;6.394;2022-08-03T16:08:26;26.60;99.90
51922;DHT22;37948;53.260;6.394;2022-08-03T16:10:52;26.70;99.90